.
WxDataArchive / Data Records for 2006-12-29
2006-12-28 December 2006 2006-12-30

Data Records for Friday, 29 December 2006

Time	Temp	Chill	HIndex	Humid	Dewpt	 Wind 	HiWind	WindDir	Rain 	Barom 
-----	----	-----	------	-----	-----	------	------	-------	-----	----- 
00:00	36.5	36.5	36.5	84	32.1	0	2	90	0.00	30.344 
00:05	36.5	36.5	36.5	84	32.1	0	2	90	0.00	30.344 
00:10	36.3	36.3	36.3	85	32.2	0	1	90	0.00	30.344 
00:15	36.3	36.3	36.3	85	32.2	0	2	90	0.00	30.337 
00:20	36.2	36.2	36.2	85	32.1	0	1	90	0.00	30.337 
00:25	36.2	36.2	36.2	85	32.1	0	1	90	0.00	30.337 
00:30	36.0	36.0	36.0	85	31.9	0	0	---	0.00	30.340 
00:35	36.0	36.0	36.0	85	31.9	0	0	---	0.00	30.340 
00:40	35.9	35.9	35.9	85	31.8	0	0	---	0.00	30.340 
00:45	35.9	35.9	35.9	86	32.1	0	0	---	0.00	30.345 
00:50	35.8	35.8	35.8	86	32.0	0	0	---	0.00	30.345 
00:55	35.8	35.8	35.8	86	32.0	0	0	---	0.00	30.345 
01:00	35.8	35.8	35.8	86	32.0	0	0	---	0.00	30.351 
01:05	35.6	35.6	35.6	86	31.8	0	0	---	0.00	30.351 
01:10	35.5	35.5	35.5	86	31.7	0	0	---	0.00	30.351 
01:15	35.5	35.5	35.5	86	31.7	0	0	---	0.00	30.352 
01:20	35.3	35.3	35.3	87	31.8	0	0	---	0.00	30.352 
01:25	35.2	35.2	35.2	87	31.7	0	0	---	0.00	30.352 
01:30	35.0	35.0	35.0	87	31.5	0	0	---	0.00	30.355 
01:35	35.0	35.0	35.0	88	31.8	0	1	90	0.00	30.355 
01:40	35.3	35.3	35.3	88	32.1	0	1	90	0.00	30.355 
01:45	35.3	35.3	35.3	87	31.8	0	0	---	0.00	30.355 
01:50	35.5	35.5	35.5	87	32.0	0	0	---	0.00	30.355 
01:55	35.5	35.5	35.5	87	32.0	0	1	90	0.00	30.355 
02:00	35.5	35.5	35.5	86	31.7	0	1	90	0.00	30.358 
02:05	35.5	35.5	35.5	86	31.7	0	1	90	0.00	30.358 
02:10	35.6	35.6	35.6	86	31.8	0	0	---	0.00	30.358 
02:15	35.5	35.5	35.5	86	31.7	0	0	---	0.00	30.361 
02:20	35.5	35.5	35.5	86	31.7	0	1	90	0.00	30.361 
02:25	35.5	35.5	35.5	86	31.7	0	1	90	0.00	30.361 
02:30	35.5	35.5	35.5	86	31.7	0	1	90	0.00	30.364 
02:35	35.3	35.3	35.3	86	31.5	0	0	---	0.00	30.364 
02:40	35.3	35.3	35.3	86	31.5	0	0	---	0.00	30.364 
02:45	35.2	35.2	35.2	86	31.4	0	0	---	0.00	30.374 
02:50	35.0	35.0	35.0	87	31.5	0	0	---	0.00	30.374 
02:55	34.9	34.9	34.9	87	31.4	0	0	---	0.00	30.374 
03:00	34.7	34.7	34.7	87	31.2	0	0	---	0.00	30.374 
03:05	34.6	34.6	34.6	87	31.1	0	0	---	0.00	30.374 
03:10	34.6	34.6	34.6	87	31.1	0	0	---	0.00	30.374 
03:15	34.4	34.4	34.4	88	31.2	0	0	---	0.00	30.376 
03:20	34.4	34.4	34.4	88	31.2	0	0	---	0.00	30.376 
03:25	34.3	34.3	34.3	88	31.1	0	0	---	0.00	30.376 
03:30	34.3	34.3	34.3	88	31.1	0	0	---	0.00	30.378 
03:35	34.1	34.1	34.1	88	30.9	0	0	---	0.00	30.378 
03:40	34.1	34.1	34.1	89	31.2	0	0	---	0.00	30.378 
03:45	34.1	34.1	34.1	89	31.2	0	0	---	0.00	30.387 
03:50	34.1	34.1	34.1	89	31.2	0	0	---	0.00	30.387 
03:55	34.1	34.1	34.1	90	31.5	0	1	90	0.00	30.387 
04:00	34.4	34.4	34.4	90	31.8	0	0	---	0.00	30.389 
04:05	34.6	34.6	34.6	90	32.0	0	0	---	0.00	30.389 
04:10	34.7	34.7	34.7	89	31.8	0	1	90	0.00	30.389 
04:15	34.9	34.9	34.9	89	32.0	0	0	---	0.00	30.392 
04:20	35.2	35.2	35.2	88	32.0	0	1	90	0.00	30.392 
04:25	35.3	35.3	35.3	88	32.1	0	0	---	0.00	30.392 
04:30	35.3	35.3	35.3	88	32.1	0	0	---	0.00	30.396 
04:35	35.3	35.3	35.3	88	32.1	0	0	---	0.00	30.396 
04:40	35.5	35.5	35.5	88	32.3	0	0	---	0.00	30.396 
04:45	35.5	35.5	35.5	87	32.0	0	1	90	0.00	30.397 
04:50	35.6	35.6	35.6	87	32.1	0	1	90	0.00	30.397 
04:55	35.6	35.6	35.6	87	32.1	0	1	90	0.00	30.397 
05:00	35.8	35.8	35.8	87	32.3	0	1	90	0.00	30.398 
05:05	35.9	35.9	35.9	87	32.4	0	1	90	0.00	30.398 
05:10	36.0	36.0	36.0	87	32.5	0	1	90	0.00	30.398 
05:15	36.0	36.0	36.0	86	32.2	0	0	---	0.00	30.411 
05:20	36.2	36.2	36.2	86	32.4	0	1	90	0.00	30.411 
05:25	36.3	36.3	36.3	85	32.2	0	1	90	0.00	30.411 
05:30	36.3	36.3	36.3	85	32.2	0	2	90	0.00	30.411 
05:35	36.3	36.3	36.3	85	32.2	0	1	90	0.00	30.411 
05:40	36.2	36.2	36.2	85	32.1	0	2	90	0.00	30.411 
05:45	36.0	36.0	36.0	86	32.2	0	1	90	0.00	30.412 
05:50	35.9	35.9	35.9	86	32.1	0	0	---	0.00	30.412 
05:55	35.8	35.8	35.8	86	32.0	0	1	90	0.00	30.412 
06:00	35.6	35.6	35.6	87	32.1	0	1	90	0.00	30.414 
06:05	35.5	35.5	35.5	87	32.0	0	1	90	0.00	30.414 
06:10	35.5	35.5	35.5	87	32.0	0	0	---	0.00	30.414 
06:15	35.5	35.5	35.5	87	32.0	0	0	---	0.00	30.432 
06:20	35.5	35.5	35.5	88	32.3	0	0	---	0.00	30.432 
06:25	35.5	35.5	35.5	88	32.3	0	0	---	0.00	30.432 
06:30	35.5	35.5	35.5	88	32.3	0	1	90	0.00	30.438 
06:35	35.5	35.5	35.5	88	32.3	0	1	90	0.00	30.438 
06:40	35.5	35.5	35.5	88	32.3	0	1	90	0.00	30.438 
06:45	35.5	35.5	35.5	88	32.3	0	1	90	0.00	30.447 
06:50	35.6	35.6	35.6	88	32.4	0	1	90	0.00	30.447 
06:55	35.6	35.6	35.6	87	32.1	0	2	90	0.00	30.447 
07:00	35.6	35.6	35.6	87	32.1	1	2	90	0.00	30.447 
07:05	35.5	35.5	35.5	88	32.3	2	3	90	0.00	30.447 
07:10	35.3	35.3	35.3	88	32.1	1	2	90	0.00	30.447 
07:15	35.2	35.2	35.2	88	32.0	1	3	112	0.00	30.449 
07:20	34.9	34.9	34.9	88	31.7	1	2	112	0.00	30.449 
07:25	34.7	34.7	34.7	88	31.5	0	1	112	0.00	30.449 
07:30	34.6	34.6	34.6	88	31.4	0	1	112	0.00	30.461 
07:35	34.4	34.4	34.4	88	31.2	0	0	---	0.00	30.461 
07:40	34.1	34.1	34.1	89	31.2	0	1	112	0.00	30.461 
07:45	34.0	34.0	34.0	89	31.1	0	1	112	0.00	30.466 
07:50	33.8	33.8	33.8	90	31.2	0	0	---	0.00	30.466 
07:55	33.5	33.5	33.5	90	30.9	0	1	112	0.00	30.466 
08:00	33.4	33.4	33.4	91	31.1	0	1	112	0.00	30.461 
08:05	33.4	33.4	33.4	91	31.1	0	1	112	0.00	30.461 
08:10	33.2	33.2	33.2	91	30.9	0	2	112	0.00	30.461 
08:15	33.2	33.2	33.2	91	30.9	0	1	112	0.00	30.467 
08:20	33.1	33.1	33.1	91	30.8	0	2	112	0.00	30.467 
08:25	33.1	33.1	33.1	91	30.8	0	1	112	0.00	30.467 
08:30	32.9	32.9	32.9	91	30.6	0	0	---	0.00	30.466 
08:35	32.9	32.9	32.9	92	30.8	0	1	112	0.00	30.466 
08:40	32.8	32.8	32.8	92	30.7	0	1	112	0.00	30.466 
08:45	32.8	32.8	32.8	92	30.7	1	2	112	0.00	30.465 
08:50	32.8	32.8	32.8	92	30.7	0	2	112	0.00	30.465 
08:55	32.8	32.8	32.8	92	30.7	0	1	112	0.00	30.465 
09:00	32.9	32.9	32.9	92	30.8	0	2	112	0.00	30.469 
09:05	33.1	33.1	33.1	92	31.0	1	3	112	0.00	30.469 
09:10	33.4	33.4	33.4	92	31.3	1	3	90	0.00	30.469 
09:15	33.7	33.7	33.7	92	31.6	1	3	90	0.00	30.470 
09:20	34.1	34.1	34.1	91	31.8	1	4	90	0.00	30.470 
09:25	34.4	34.4	34.4	89	31.5	2	4	90	0.00	30.470 
09:30	34.7	34.7	34.7	88	31.5	1	2	90	0.00	30.478 
09:35	35.2	35.2	35.2	88	32.0	1	2	90	0.00	30.478 
09:40	35.5	35.5	35.5	87	32.0	1	4	90	0.00	30.478 
09:45	35.9	35.9	35.9	86	32.1	1	3	90	0.00	30.473 
09:50	36.3	36.3	36.3	85	32.2	1	4	90	0.00	30.473 
09:55	36.8	36.8	36.8	84	32.4	1	4	112	0.00	30.473 
10:00	37.2	37.2	37.2	83	32.5	2	4	112	0.00	30.478 
10:05	37.6	37.6	37.6	83	32.9	2	4	112	0.00	30.478 
10:10	38.0	38.0	38.0	82	33.0	1	3	112	0.00	30.478 
10:15	38.3	38.3	38.3	81	33.0	1	4	112	0.00	30.473 
10:20	38.8	38.8	38.8	81	33.5	2	5	112	0.00	30.473 
10:25	39.1	39.1	39.1	80	33.5	2	4	112	0.00	30.473 
10:30	39.2	39.2	39.2	80	33.6	2	4	90	0.00	30.478 
10:35	39.6	39.6	39.6	79	33.6	1	3	90	0.00	30.478 
10:40	39.9	39.9	39.9	78	33.6	2	4	90	0.00	30.478 
10:45	40.1	40.1	40.1	77	33.5	1	3	112	0.00	30.479 
10:50	40.3	40.3	40.3	77	33.7	1	3	112	0.00	30.479 
10:55	40.6	40.6	40.6	76	33.6	2	5	90	0.00	30.479 
11:00	40.8	40.8	40.8	76	33.8	2	3	90	0.00	30.480 
11:05	41.2	41.2	41.2	76	34.2	1	3	90	0.00	30.480 
11:10	41.5	41.5	41.5	76	34.5	1	3	90	0.00	30.480 
11:15	41.8	41.8	41.8	76	34.8	1	3	90	0.00	30.476 
11:20	42.1	42.1	42.1	74	34.4	1	4	90	0.00	30.476 
11:25	42.3	42.3	42.3	75	35.0	1	3	90	0.00	30.476 
11:30	42.8	42.8	42.8	73	34.8	1	4	90	0.00	30.472 
11:35	43.1	43.1	43.1	72	34.7	2	4	90	0.00	30.472 
11:40	43.2	43.2	43.2	71	34.4	2	3	112	0.00	30.472 
11:45	43.3	43.3	43.3	69	33.8	2	3	112	0.00	30.470 
11:50	43.6	43.6	43.6	69	34.1	1	3	112	0.00	30.470 
11:55	43.9	43.9	43.9	70	34.8	2	5	112	0.00	30.470 
12:00	44.1	44.1	44.1	69	34.6	1	3	112	0.00	30.463 
12:05	44.3	44.3	44.3	68	34.4	1	3	112	0.00	30.463 
12:10	44.5	44.5	44.5	68	34.6	1	3	112	0.00	30.463 
12:15	44.8	44.8	44.8	68	34.9	1	2	112	0.00	30.458 
12:20	45.1	45.1	45.1	69	35.5	1	4	135	0.00	30.458 
12:25	45.4	45.4	45.4	67	35.1	1	4	112	0.00	30.458 
12:30	45.5	45.5	45.5	66	34.8	2	3	112	0.00	30.453 
12:35	45.7	45.7	45.7	67	35.4	2	3	112	0.00	30.453 
12:40	46.0	46.0	46.0	66	35.3	1	3	270	0.00	30.453 
12:45	46.5	46.5	46.5	67	36.1	1	4	112	0.00	30.442 
12:50	46.8	46.8	46.8	66	36.0	1	4	112	0.00	30.442 
12:55	47.1	47.1	47.1	69	37.5	1	4	90	0.00	30.442 
13:00	47.6	47.6	47.6	64	36.0	1	3	90	0.00	30.436 
13:05	48.0	48.0	48.0	62	35.6	1	4	90	0.00	30.436 
13:10	48.0	48.0	48.0	63	36.0	1	2	112	0.00	30.436 
13:15	48.2	48.2	48.2	64	36.6	1	3	112	0.00	30.435 
13:20	48.3	48.3	48.3	62	35.9	0	2	90	0.00	30.435 
13:25	48.5	48.5	48.5	62	36.1	1	3	112	0.00	30.435 
13:30	48.8	48.8	48.8	61	36.0	1	2	90	0.00	30.433 
13:35	48.9	48.9	48.9	60	35.6	1	4	112	0.00	30.433 
13:40	48.9	48.9	48.9	60	35.6	1	3	112	0.00	30.433 
13:45	48.9	48.9	48.9	60	35.6	1	2	112	0.00	30.434 
13:50	49.1	49.1	49.1	61	36.2	1	2	112	0.00	30.434 
13:55	49.1	49.1	49.1	62	36.6	1	3	90	0.00	30.434 
14:00	49.2	49.2	49.2	62	36.7	1	2	90	0.00	30.435 
14:05	49.5	49.5	49.5	60	36.2	0	1	90	0.00	30.435 
14:10	49.6	49.6	49.6	58	35.4	0	3	90	0.00	30.435 
14:15	49.6	49.6	49.6	58	35.4	0	2	90	0.00	30.436 
14:20	49.6	49.6	49.6	60	36.3	1	2	90	0.00	30.436 
14:25	49.5	49.5	49.5	58	35.3	1	3	90	0.00	30.436 
14:30	49.6	49.6	49.6	60	36.3	0	1	90	0.00	30.430 
14:35	49.8	49.8	49.8	58	35.6	1	3	90	0.00	30.430 
14:40	49.8	49.8	49.8	57	35.2	1	4	112	0.00	30.430 
14:45	50.2	50.2	50.2	56	35.1	1	3	112	0.00	30.425 
14:50	50.2	50.2	50.2	57	35.6	1	3	112	0.00	30.425 
14:55	50.4	50.4	50.4	58	36.2	1	3	112	0.00	30.425 
15:00	50.4	50.4	50.4	58	36.2	1	4	135	0.00	30.422 
15:05	50.4	50.4	50.4	58	36.2	1	3	90	0.00	30.422 
15:10	50.4	50.4	50.4	58	36.2	1	2	112	0.00	30.422 
15:15	50.4	50.4	50.4	59	36.6	1	3	112	0.00	30.422 
15:20	50.5	50.5	50.5	58	36.3	1	2	112	0.00	30.422 
15:25	50.7	50.7	50.7	58	36.5	0	3	112	0.00	30.422 
15:30	50.8	50.8	50.8	57	36.1	1	3	112	0.00	30.422 
15:35	51.0	51.0	51.0	58	36.7	0	3	135	0.00	30.422 
15:40	51.0	51.0	51.0	57	36.3	1	3	135	0.00	30.422 
15:45	51.1	51.1	51.1	58	36.8	1	3	112	0.00	30.420 
15:50	51.3	51.3	51.3	58	37.0	1	3	90	0.00	30.420 
15:55	51.1	51.1	51.1	57	36.4	1	4	90	0.00	30.420 
16:00	51.1	51.1	51.1	58	36.8	2	4	90	0.00	30.417 
16:05	51.0	51.0	51.0	59	37.2	2	3	90	0.00	30.417 
16:10	51.0	51.0	51.0	58	36.7	2	4	90	0.00	30.417 
16:15	50.8	50.8	50.8	59	37.0	1	3	90	0.00	30.413 
16:20	50.8	50.8	50.8	60	37.4	1	2	90	0.00	30.413 
16:25	50.5	50.5	50.5	60	37.1	1	3	90	0.00	30.413 
16:30	50.5	50.5	50.5	60	37.1	1	4	90	0.00	30.411 
16:35	50.4	50.4	50.4	61	37.5	1	2	90	0.00	30.411 
16:40	50.1	50.1	50.1	62	37.6	0	1	90	0.00	30.411 
16:45	49.6	49.6	49.6	63	37.5	0	1	90	0.00	30.411 
16:50	49.2	49.2	49.2	64	37.5	0	0	---	0.00	30.411 
16:55	48.6	48.6	48.6	65	37.4	0	1	90	0.00	30.411 
17:00	48.2	48.2	48.2	65	37.0	0	1	90	0.00	30.413 
17:05	47.7	47.7	47.7	66	36.9	0	0	---	0.00	30.413 
17:10	47.3	47.3	47.3	67	36.9	0	0	---	0.00	30.413 
17:15	46.8	46.8	46.8	69	37.2	0	1	90	0.00	30.416 
17:20	46.2	46.2	46.2	69	36.6	0	0	---	0.00	30.416 
17:25	46.0	46.0	46.0	70	36.8	0	1	90	0.00	30.416 
17:30	45.5	45.5	45.5	71	36.7	0	0	---	0.00	30.420 
17:35	45.1	45.1	45.1	72	36.6	0	0	---	0.00	30.420 
17:40	44.6	44.6	44.6	73	36.5	0	0	---	0.00	30.420 
17:45	44.1	44.1	44.1	74	36.4	0	0	---	0.00	30.420 
17:50	43.8	43.8	43.8	75	36.4	0	0	---	0.00	30.420 
17:55	43.3	43.3	43.3	76	36.3	0	0	---	0.00	30.420 
18:00	43.1	43.1	43.1	77	36.4	0	0	---	0.00	30.420 
18:05	42.8	42.8	42.8	77	36.1	0	0	---	0.00	30.420 
18:10	42.3	42.3	42.3	78	35.9	0	0	---	0.00	30.420 
18:15	42.1	42.1	42.1	79	36.1	0	0	---	0.00	30.421 
18:20	41.8	41.8	41.8	79	35.8	0	0	---	0.00	30.421 
18:25	41.3	41.3	41.3	80	35.6	0	0	---	0.00	30.421 
18:30	41.1	41.1	41.1	81	35.7	0	0	---	0.00	30.419 
18:35	40.6	40.6	40.6	81	35.2	0	0	---	0.00	30.419 
18:40	40.3	40.3	40.3	82	35.2	0	0	---	0.00	30.419 
18:45	40.1	40.1	40.1	83	35.4	0	0	---	0.00	30.417 
18:50	39.9	39.9	39.9	84	35.5	0	0	---	0.00	30.417 
18:55	39.6	39.6	39.6	85	35.5	0	0	---	0.00	30.417 
19:00	39.6	39.6	39.6	85	35.5	0	0	---	0.00	30.417 
19:05	39.6	39.6	39.6	85	35.5	0	0	---	0.00	30.417 
19:10	39.6	39.6	39.6	85	35.5	0	0	---	0.00	30.417 
19:15	39.6	39.6	39.6	85	35.5	0	0	---	0.00	30.422 
19:20	39.3	39.3	39.3	85	35.2	0	0	---	0.00	30.422 
19:25	39.2	39.2	39.2	85	35.1	0	0	---	0.00	30.422 
19:30	38.9	38.9	38.9	86	35.1	0	0	---	0.00	30.422 
19:35	38.8	38.8	38.8	86	35.0	0	0	---	0.00	30.422 
19:40	38.6	38.6	38.6	86	34.8	0	0	---	0.00	30.422 
19:45	38.3	38.3	38.3	86	34.5	0	0	---	0.00	30.426 
19:50	38.2	38.2	38.2	86	34.4	0	0	---	0.00	30.426 
19:55	37.9	37.9	37.9	87	34.4	0	0	---	0.00	30.426 
20:00	37.8	37.8	37.8	87	34.3	0	0	---	0.00	30.429 
20:05	37.6	37.6	37.6	87	34.1	0	0	---	0.00	30.429 
20:10	37.5	37.5	37.5	88	34.3	0	0	---	0.00	30.429 
20:15	37.3	37.3	37.3	88	34.1	0	0	---	0.00	30.425 
20:20	37.2	37.2	37.2	88	34.0	0	0	---	0.00	30.425 
20:25	37.0	37.0	37.0	89	34.1	0	0	---	0.00	30.425 
20:30	36.9	36.9	36.9	89	34.0	0	0	---	0.00	30.426 
20:35	36.8	36.8	36.8	90	34.1	0	0	---	0.00	30.426 
20:40	36.8	36.8	36.8	90	34.1	0	0	---	0.00	30.426 
20:45	36.8	36.8	36.8	90	34.1	0	0	---	0.00	30.423 
20:50	36.6	36.6	36.6	91	34.2	0	0	---	0.00	30.423 
20:55	36.5	36.5	36.5	91	34.1	0	0	---	0.00	30.423 
21:00	36.5	36.5	36.5	91	34.1	0	0	---	0.00	30.418 
21:05	36.6	36.6	36.6	91	34.2	0	1	90	0.00	30.418 
21:10	36.6	36.6	36.6	91	34.2	0	0	---	0.00	30.418 
21:15	36.6	36.6	36.6	91	34.2	0	0	---	0.00	30.415 
21:20	36.6	36.6	36.6	91	34.2	0	0	---	0.00	30.415 
21:25	36.5	36.5	36.5	91	34.1	0	0	---	0.00	30.415 
21:30	36.5	36.5	36.5	91	34.1	0	0	---	0.00	30.415 
21:35	36.6	36.6	36.6	92	34.5	0	2	90	0.00	30.415 
21:40	37.2	37.2	37.2	91	34.8	1	3	90	0.00	30.415 
21:45	37.6	37.6	37.6	89	34.7	0	2	90	0.00	30.415 
21:50	37.6	37.6	37.6	88	34.4	0	1	90	0.00	30.415 
21:55	37.6	37.6	37.6	88	34.4	0	1	90	0.00	30.415 
22:00	37.5	37.5	37.5	88	34.3	0	0	---	0.00	30.418 
22:05	37.3	37.3	37.3	88	34.1	0	0	---	0.00	30.418 
22:10	37.0	37.0	37.0	88	33.8	0	0	---	0.00	30.418 
22:15	36.9	36.9	36.9	88	33.7	0	2	90	0.00	30.413 
22:20	36.9	36.9	36.9	88	33.7	0	1	90	0.00	30.413 
22:25	37.0	37.0	37.0	88	33.8	1	3	90	0.00	30.413 
22:30	37.0	37.0	37.0	88	33.8	1	3	90	0.00	30.410 
22:35	37.0	37.0	37.0	87	33.5	1	3	90	0.00	30.410 
22:40	37.0	37.0	37.0	88	33.8	0	3	90	0.00	30.410 
22:45	36.9	36.9	36.9	88	33.7	1	3	90	0.00	30.414 
22:50	36.9	36.9	36.9	88	33.7	1	3	112	0.00	30.414 
22:55	36.9	36.9	36.9	88	33.7	0	1	112	0.00	30.414 
23:00	36.6	36.6	36.6	88	33.4	0	0	---	0.00	30.426 
23:05	36.5	36.5	36.5	89	33.6	1	4	112	0.00	30.426 
23:10	36.5	36.5	36.5	90	33.9	1	3	112	0.00	30.426 
23:15	36.3	36.3	36.3	90	33.7	0	3	90	0.00	30.426 
23:20	36.2	36.2	36.2	90	33.6	0	1	112	0.00	30.426 
23:25	35.9	35.9	35.9	90	33.3	0	1	112	0.00	30.426 
23:30	35.8	35.8	35.8	91	33.4	1	3	112	0.00	30.424 
23:35	35.6	35.6	35.6	91	33.2	0	2	112	0.00	30.424 
23:40	35.6	35.6	35.6	92	33.5	0	2	112	0.00	30.424 
23:45	35.5	35.5	35.5	92	33.4	0	2	90	0.00	30.414 
23:50	35.5	35.5	35.5	92	33.4	1	3	112	0.00	30.414 
23:55	35.3	35.3	35.3	92	33.2	1	3	112	0.00	30.414 

CoCoRaHS
IN-AL-39
A2 Web Hosting
Creative Commons License
GoDaddy
Look for:

loaded 2017-12-13 09:51:58 • last modified 2010-11-18 10:43:29
Privacy PolicyDisclaimer
• wx.awcolley.com is powered by PmWiki v.2002016 •
• all content (unless otherwise noted) © 2017 A W Colley